createdAt,value
2017-06-29T00:01:27.550Z,19.90
2017-06-29T00:03:55.098Z,19.90
2017-06-29T00:06:22.652Z,19.90
2017-06-29T00:08:50.191Z,19.80
2017-06-29T00:11:17.728Z,19.80
2017-06-29T00:13:45.276Z,19.90
2017-06-29T00:16:12.826Z,19.80
2017-06-29T00:18:40.361Z,19.80
2017-06-29T00:21:07.913Z,19.90
2017-06-29T00:23:35.434Z,19.80
2017-06-29T00:26:02.971Z,19.90
2017-06-29T00:28:30.548Z,19.80
2017-06-29T00:30:58.088Z,19.80
2017-06-29T00:33:25.638Z,19.80
2017-06-29T00:35:54.123Z,20.00
2017-06-29T00:38:22.433Z,19.80
2017-06-29T00:40:49.958Z,19.70
2017-06-29T00:43:18.279Z,19.80
2017-06-29T00:45:45.810Z,19.80
2017-06-29T00:48:13.358Z,19.60
2017-06-29T00:50:40.906Z,19.60
2017-06-29T00:53:08.458Z,19.60
2017-06-29T00:55:35.978Z,19.60
2017-06-29T00:58:03.536Z,19.50
2017-06-29T01:00:31.075Z,19.60
2017-06-29T01:02:58.613Z,19.60
2017-06-29T01:05:26.186Z,19.70
2017-06-29T01:07:53.738Z,19.70
2017-06-29T01:10:22.061Z,19.40
2017-06-29T01:12:49.602Z,19.40
2017-06-29T01:15:17.162Z,19.50
2017-06-29T01:17:44.702Z,19.50
2017-06-29T01:20:13.012Z,19.60
2017-06-29T01:22:40.550Z,19.60
2017-06-29T01:25:08.858Z,19.80
2017-06-29T01:27:36.399Z,19.70
2017-06-29T01:30:03.959Z,19.70
2017-06-29T01:32:31.499Z,19.50
2017-06-29T01:34:59.056Z,19.50
2017-06-29T01:37:26.609Z,19.50
2017-06-29T01:39:54.146Z,19.60
2017-06-29T01:42:21.698Z,19.60
2017-06-29T01:44:49.221Z,19.70
2017-06-29T01:47:16.784Z,19.60
2017-06-29T01:49:44.326Z,19.50
2017-06-29T01:52:11.887Z,19.30
2017-06-29T01:54:40.186Z,19.30
2017-06-29T01:57:07.725Z,19.30
2017-06-29T01:59:35.267Z,19.40
2017-06-29T02:02:02.822Z,19.20
2017-06-29T02:04:30.367Z,19.10
2017-06-29T02:06:57.927Z,19.00
2017-06-29T02:09:25.464Z,19.00
2017-06-29T02:11:53.010Z,19.40
2017-06-29T02:14:20.534Z,19.60
2017-06-29T02:16:48.094Z,19.50
2017-06-29T02:19:16.414Z,19.20
2017-06-29T02:21:43.941Z,19.20
2017-06-29T02:24:11.489Z,19.30
2017-06-29T02:26:39.035Z,19.30
2017-06-29T02:29:06.573Z,19.20
2017-06-29T02:31:34.119Z,19.30
2017-06-29T02:34:01.661Z,19.50
2017-06-29T02:36:29.191Z,19.60
2017-06-29T02:38:57.502Z,19.20
2017-06-29T02:41:25.051Z,19.30
2017-06-29T02:43:52.685Z,19.40
2017-06-29T02:46:20.219Z,19.30
2017-06-29T02:48:47.768Z,19.10
2017-06-29T02:51:15.316Z,19.00
2017-06-29T02:53:42.848Z,19.00
2017-06-29T02:56:10.410Z,19.20
2017-06-29T02:58:38.714Z,19.00
2017-06-29T03:01:06.266Z,19.00
2017-06-29T03:03:33.830Z,19.10
2017-06-29T03:06:01.391Z,19.30
2017-06-29T03:08:28.926Z,19.50
2017-06-29T03:10:57.291Z,19.30
2017-06-29T03:13:25.604Z,19.10
2017-06-29T03:15:53.155Z,19.10
2017-06-29T03:18:20.706Z,19.00
2017-06-29T03:20:49.077Z,19.10
2017-06-29T03:23:17.381Z,19.40
2017-06-29T03:25:44.933Z,19.40
2017-06-29T03:28:12.470Z,19.30
2017-06-29T03:30:40.794Z,19.50
2017-06-29T03:33:08.341Z,19.40
2017-06-29T03:35:35.873Z,19.60
2017-06-29T03:38:04.194Z,19.80
2017-06-29T03:40:31.735Z,19.80
2017-06-29T03:42:59.314Z,19.40
2017-06-29T03:45:26.861Z,19.30
2017-06-29T03:47:54.429Z,19.40
2017-06-29T03:50:21.957Z,19.70
2017-06-29T03:52:49.518Z,19.80
2017-06-29T03:55:17.062Z,20.00
2017-06-29T03:57:44.606Z,19.90
2017-06-29T04:00:12.136Z,19.90
2017-06-29T04:02:39.700Z,20.00
2017-06-29T04:05:07.268Z,20.00
2017-06-29T04:07:34.807Z,20.00
2017-06-29T04:10:02.366Z,19.90
2017-06-29T04:12:29.905Z,19.80
2017-06-29T04:14:58.240Z,20.00
2017-06-29T04:17:25.791Z,20.00
2017-06-29T04:19:53.338Z,19.90
2017-06-29T04:22:20.880Z,20.30
2017-06-29T04:24:48.432Z,20.30
2017-06-29T04:27:15.969Z,20.30
2017-06-29T04:29:44.295Z,20.20
2017-06-29T04:32:11.850Z,20.20
2017-06-29T04:34:39.408Z,20.10
2017-06-29T04:37:06.938Z,20.10
2017-06-29T04:39:35.252Z,20.40
2017-06-29T04:42:02.781Z,20.40
2017-06-29T04:44:31.097Z,20.70
2017-06-29T04:46:58.630Z,20.70
2017-06-29T04:49:26.155Z,20.40
2017-06-29T04:51:53.713Z,20.60
2017-06-29T04:54:21.255Z,20.50
2017-06-29T04:56:48.802Z,20.50
2017-06-29T04:59:16.333Z,20.50
2017-06-29T05:01:43.895Z,20.50
2017-06-29T05:04:11.440Z,20.50
2017-06-29T05:06:38.998Z,20.50
2017-06-29T05:09:07.375Z,20.90
2017-06-29T05:11:34.971Z,20.90
2017-06-29T05:14:02.515Z,21.00
2017-06-29T05:16:30.076Z,20.80
2017-06-29T05:18:57.627Z,20.80
2017-06-29T05:21:25.177Z,20.90
2017-06-29T05:23:52.706Z,20.80
2017-06-29T05:26:20.263Z,20.50
2017-06-29T05:28:47.814Z,20.30
2017-06-29T05:31:15.355Z,20.50
2017-06-29T05:33:42.902Z,20.30
2017-06-29T05:36:10.448Z,20.90
2017-06-29T05:38:38.108Z,21.00
2017-06-29T05:41:05.647Z,21.00
2017-06-29T05:43:33.211Z,20.80
2017-06-29T05:46:00.751Z,20.80
2017-06-29T05:48:28.298Z,20.90
2017-06-29T05:50:55.839Z,20.50
2017-06-29T05:53:23.400Z,20.50
2017-06-29T05:55:50.936Z,20.60
2017-06-29T05:58:18.515Z,20.30
2017-06-29T06:00:46.047Z,20.20
2017-06-29T06:03:13.569Z,20.60
2017-06-29T06:05:41.117Z,21.20
2017-06-29T06:08:08.656Z,21.30
2017-06-29T06:10:36.217Z,21.30
2017-06-29T06:13:03.775Z,20.80
2017-06-29T06:15:31.321Z,21.10
2017-06-29T06:17:58.873Z,21.20
2017-06-29T06:20:26.427Z,21.30
2017-06-29T06:22:53.980Z,21.30
2017-06-29T06:25:21.542Z,21.60
2017-06-29T06:27:49.097Z,21.60
2017-06-29T06:30:16.655Z,21.80
2017-06-29T06:32:44.207Z,21.60
2017-06-29T06:35:11.746Z,22.00
2017-06-29T06:37:39.345Z,22.20
2017-06-29T06:40:06.894Z,22.50
2017-06-29T06:42:34.429Z,22.50
2017-06-29T06:45:01.968Z,22.50
2017-06-29T06:47:29.533Z,22.70
2017-06-29T06:49:57.085Z,22.60
2017-06-29T06:52:24.634Z,22.20
2017-06-29T06:54:52.171Z,22.10
2017-06-29T06:57:19.730Z,22.20
2017-06-29T06:59:47.258Z,22.00
2017-06-29T07:02:14.818Z,22.20
2017-06-29T07:04:42.370Z,22.20
2017-06-29T07:07:09.933Z,22.40
2017-06-29T07:09:37.479Z,22.40
2017-06-29T07:12:05.039Z,23.00
2017-06-29T07:14:32.573Z,23.40
2017-06-29T07:17:00.119Z,23.20
2017-06-29T07:19:27.678Z,23.70
2017-06-29T07:21:55.219Z,23.60
2017-06-29T07:24:22.769Z,23.60
2017-06-29T07:26:50.306Z,23.60
2017-06-29T07:29:17.846Z,23.50
2017-06-29T07:31:45.386Z,22.70
2017-06-29T07:34:12.962Z,23.00
2017-06-29T07:36:40.489Z,22.90
2017-06-29T07:39:08.030Z,23.40
2017-06-29T07:41:35.569Z,23.20
2017-06-29T07:44:03.117Z,23.30
2017-06-29T07:46:30.647Z,23.10
2017-06-29T07:48:58.189Z,22.70
2017-06-29T07:51:25.736Z,22.80
2017-06-29T07:53:53.279Z,22.90
2017-06-29T07:56:20.833Z,22.70
2017-06-29T07:58:48.363Z,22.80
2017-06-29T08:01:15.921Z,23.20
2017-06-29T08:03:43.463Z,23.40
2017-06-29T08:06:11.028Z,23.20
2017-06-29T08:08:38.575Z,22.90
2017-06-29T08:11:06.135Z,22.80
2017-06-29T08:13:33.682Z,22.70
2017-06-29T08:16:01.234Z,22.80
2017-06-29T08:18:28.756Z,22.70
2017-06-29T08:20:56.309Z,22.70
2017-06-29T08:23:23.848Z,22.70
2017-06-29T08:25:51.402Z,22.40
2017-06-29T08:28:18.937Z,22.10
2017-06-29T08:30:46.480Z,22.20
2017-06-29T08:33:14.036Z,22.10
2017-06-29T08:35:41.582Z,22.20
2017-06-29T08:38:09.142Z,22.10
2017-06-29T08:40:36.705Z,22.00
2017-06-29T08:43:04.248Z,21.90
2017-06-29T08:45:31.769Z,22.20
2017-06-29T08:47:59.320Z,22.10
2017-06-29T08:50:26.866Z,22.20
2017-06-29T08:52:54.409Z,22.40
2017-06-29T08:55:21.943Z,22.40
2017-06-29T08:57:49.501Z,22.20
2017-06-29T09:00:17.039Z,22.00
2017-06-29T09:02:44.598Z,21.90
2017-06-29T09:05:12.190Z,22.10
2017-06-29T09:07:39.744Z,22.40
2017-06-29T09:10:07.270Z,22.10
2017-06-29T09:12:34.797Z,22.10
2017-06-29T09:15:02.346Z,22.00
2017-06-29T09:17:29.892Z,21.90
2017-06-29T09:19:57.433Z,21.80
2017-06-29T09:22:24.970Z,21.80
2017-06-29T09:24:52.531Z,22.00
2017-06-29T09:27:20.078Z,21.80
2017-06-29T09:29:47.659Z,21.90
2017-06-29T09:32:15.206Z,21.80
2017-06-29T09:34:42.785Z,21.80
2017-06-29T09:37:10.328Z,21.70
2017-06-29T09:39:37.877Z,21.20
2017-06-29T09:42:05.420Z,21.10
2017-06-29T09:44:32.970Z,21.20
2017-06-29T09:47:00.527Z,21.10
2017-06-29T09:49:28.096Z,21.00
2017-06-29T09:51:55.634Z,20.50
2017-06-29T09:54:23.175Z,20.70
2017-06-29T09:56:50.733Z,20.50
2017-06-29T09:59:18.276Z,20.90
2017-06-29T10:01:45.830Z,20.90
2017-06-29T10:04:13.370Z,20.90
2017-06-29T10:06:40.922Z,20.60
2017-06-29T10:09:08.458Z,20.70
2017-06-29T10:11:36.000Z,20.70
2017-06-29T10:14:03.516Z,20.80
2017-06-29T10:16:31.070Z,20.60
2017-06-29T10:18:58.610Z,20.20
2017-06-29T10:21:26.162Z,20.30
2017-06-29T10:23:53.697Z,20.00
2017-06-29T10:26:21.259Z,19.80
2017-06-29T10:28:48.789Z,19.80
2017-06-29T10:31:16.350Z,20.00
2017-06-29T10:33:43.914Z,20.20
2017-06-29T10:36:11.463Z,20.50
2017-06-29T10:38:39.070Z,20.40
2017-06-29T10:41:06.596Z,20.50
2017-06-29T10:43:34.142Z,20.60
2017-06-29T10:46:01.678Z,20.80
2017-06-29T10:48:29.230Z,20.70
2017-06-29T10:50:56.771Z,20.60
2017-06-29T10:53:24.335Z,20.70
2017-06-29T10:55:51.876Z,20.70
2017-06-29T10:58:19.422Z,20.70
2017-06-29T11:00:46.945Z,20.70
2017-06-29T11:03:14.482Z,20.80
2017-06-29T11:05:42.021Z,20.80
2017-06-29T11:08:09.583Z,20.70
2017-06-29T11:10:37.134Z,20.40
2017-06-29T11:13:04.675Z,20.70
2017-06-29T11:15:32.245Z,20.60
2017-06-29T11:17:59.781Z,20.80
2017-06-29T11:20:27.341Z,20.70
2017-06-29T11:22:54.883Z,20.60
2017-06-29T11:25:22.446Z,20.60
2017-06-29T11:27:49.981Z,20.60
2017-06-29T11:30:17.562Z,20.70
2017-06-29T11:32:45.098Z,20.90
2017-06-29T11:35:12.641Z,20.80
2017-06-29T11:37:40.198Z,20.80
2017-06-29T11:40:07.750Z,21.00
2017-06-29T11:42:35.299Z,21.10
2017-06-29T11:45:02.850Z,21.00
2017-06-29T11:47:30.391Z,21.00
2017-06-29T11:49:57.968Z,21.10
2017-06-29T11:52:25.541Z,21.10
2017-06-29T11:54:53.082Z,21.20
2017-06-29T11:57:20.659Z,21.10
2017-06-29T11:59:48.216Z,21.20
2017-06-29T12:02:15.774Z,21.20
2017-06-29T12:04:43.325Z,21.10
2017-06-29T12:07:10.900Z,21.00
2017-06-29T12:09:38.434Z,20.70
2017-06-29T12:12:05.995Z,20.60
2017-06-29T12:14:33.540Z,20.80
2017-06-29T12:17:01.112Z,20.50
2017-06-29T12:19:28.641Z,20.20
2017-06-29T12:21:56.185Z,20.40
2017-06-29T12:24:23.728Z,20.40
2017-06-29T12:26:51.275Z,20.40
2017-06-29T12:29:18.865Z,20.80
2017-06-29T12:31:46.435Z,20.70
2017-06-29T12:34:13.991Z,20.90
2017-06-29T12:36:41.522Z,20.80
2017-06-29T12:39:09.090Z,20.90
2017-06-29T12:41:36.635Z,21.00
2017-06-29T12:44:04.187Z,21.20
2017-06-29T12:46:31.714Z,21.00
2017-06-29T12:48:59.268Z,21.00
2017-06-29T12:51:26.812Z,21.10
2017-06-29T12:53:54.376Z,21.20
2017-06-29T12:56:21.907Z,21.10
2017-06-29T12:58:49.462Z,20.70
2017-06-29T13:01:17.026Z,20.80
2017-06-29T13:03:44.567Z,21.00
2017-06-29T13:06:12.133Z,21.00
2017-06-29T13:08:39.667Z,20.90
2017-06-29T13:11:07.210Z,20.60
2017-06-29T13:13:34.763Z,20.50
2017-06-29T13:16:02.314Z,20.40
2017-06-29T13:18:29.846Z,20.20
2017-06-29T13:20:57.403Z,19.90
2017-06-29T13:23:24.963Z,20.30
2017-06-29T13:25:52.519Z,20.60
2017-06-29T13:28:20.059Z,20.80
2017-06-29T13:30:47.602Z,21.00
2017-06-29T13:33:15.145Z,20.80
2017-06-29T13:35:42.672Z,20.80
2017-06-29T13:38:10.256Z,20.90
2017-06-29T13:40:37.810Z,20.90
2017-06-29T13:43:05.358Z,20.60
2017-06-29T13:45:32.895Z,21.00
2017-06-29T13:48:00.434Z,20.80
2017-06-29T13:50:27.980Z,21.10
2017-06-29T13:52:55.525Z,21.30
2017-06-29T13:55:23.049Z,21.00
2017-06-29T13:57:50.597Z,21.10
2017-06-29T14:00:18.129Z,21.00
2017-06-29T14:02:45.684Z,21.00
2017-06-29T14:05:13.217Z,20.90
2017-06-29T14:07:40.762Z,21.10
2017-06-29T14:10:08.294Z,20.90
2017-06-29T14:12:35.826Z,20.90
2017-06-29T14:15:03.375Z,21.00
2017-06-29T14:17:30.903Z,20.90
2017-06-29T14:19:58.459Z,20.90
2017-06-29T14:22:26.004Z,21.00
2017-06-29T14:24:53.556Z,20.80
2017-06-29T14:27:21.091Z,21.00
2017-06-29T14:29:48.657Z,20.80
2017-06-29T14:32:16.217Z,20.80
2017-06-29T14:34:43.761Z,20.40
2017-06-29T14:37:11.291Z,20.30
2017-06-29T14:39:38.847Z,20.10
2017-06-29T14:42:06.387Z,20.00
2017-06-29T14:44:33.943Z,20.00
2017-06-29T14:47:01.475Z,20.00
2017-06-29T14:49:29.026Z,19.90
2017-06-29T14:51:56.570Z,19.80
2017-06-29T14:54:24.116Z,19.70
2017-06-29T14:56:51.642Z,19.50
2017-06-29T14:59:19.211Z,19.30
2017-06-29T15:01:46.742Z,19.40
2017-06-29T15:04:14.272Z,19.50
2017-06-29T15:06:41.830Z,19.50
2017-06-29T15:09:09.349Z,19.50
2017-06-29T15:11:36.898Z,19.30
2017-06-29T15:14:04.435Z,19.10
2017-06-29T15:16:31.974Z,19.30
2017-06-29T15:18:59.494Z,19.10
2017-06-29T15:21:27.038Z,18.90
2017-06-29T15:23:54.567Z,18.80
2017-06-29T15:26:22.119Z,18.80
2017-06-29T15:28:49.646Z,18.70
2017-06-29T15:31:17.196Z,18.50
2017-06-29T15:33:44.733Z,18.50
2017-06-29T15:36:12.327Z,18.50
2017-06-29T15:38:39.876Z,18.60
2017-06-29T15:41:07.435Z,18.40
2017-06-29T15:43:36.129Z,18.20
2017-06-29T15:46:03.680Z,18.20
2017-06-29T15:48:31.231Z,18.10
2017-06-29T15:50:58.780Z,18.10
2017-06-29T15:53:26.333Z,18.20
2017-06-29T15:55:53.863Z,18.10
2017-06-29T15:58:21.409Z,18.20
2017-06-29T16:00:48.951Z,18.20
2017-06-29T16:03:17.661Z,18.10
2017-06-29T16:05:45.192Z,18.10
2017-06-29T16:08:12.752Z,18.10
2017-06-29T16:10:40.290Z,18.00
2017-06-29T16:13:07.854Z,18.10
2017-06-29T16:15:35.382Z,18.10
2017-06-29T16:18:02.912Z,18.10
2017-06-29T16:20:30.474Z,18.10
2017-06-29T16:22:58.021Z,18.00
2017-06-29T16:25:25.569Z,18.10
2017-06-29T16:27:53.122Z,18.10
2017-06-29T16:30:20.684Z,18.10
2017-06-29T16:32:48.214Z,18.10
2017-06-29T16:35:15.762Z,18.10
2017-06-29T16:37:43.302Z,18.10
2017-06-29T16:40:10.846Z,18.10
2017-06-29T16:42:38.411Z,18.00
2017-06-29T16:45:05.960Z,18.00
2017-06-29T16:47:33.493Z,18.00
2017-06-29T16:50:01.058Z,18.00
2017-06-29T16:52:28.594Z,18.20
2017-06-29T16:54:56.122Z,18.00
2017-06-29T16:57:23.662Z,18.20
2017-06-29T16:59:51.194Z,18.10
2017-06-29T17:02:18.740Z,18.10
2017-06-29T17:04:46.285Z,18.20
2017-06-29T17:07:13.841Z,18.20
2017-06-29T17:09:41.357Z,18.10
2017-06-29T17:12:08.909Z,18.00
2017-06-29T17:14:36.438Z,18.20
2017-06-29T17:17:04.002Z,18.10
2017-06-29T17:19:32.654Z,18.10
2017-06-29T17:22:00.198Z,18.10
2017-06-29T17:24:27.734Z,18.00
2017-06-29T17:26:55.279Z,18.00
2017-06-29T17:29:22.806Z,18.10
2017-06-29T17:31:50.360Z,18.20
2017-06-29T17:34:17.881Z,17.90
2017-06-29T17:36:46.170Z,18.10
2017-06-29T17:39:13.726Z,18.10
2017-06-29T17:41:41.261Z,18.10
2017-06-29T17:44:08.813Z,18.00
2017-06-29T17:46:36.355Z,18.00
2017-06-29T17:49:03.911Z,18.00
2017-06-29T17:51:31.451Z,18.00
2017-06-29T17:54:00.131Z,18.00
2017-06-29T17:56:27.645Z,18.00
2017-06-29T17:58:55.186Z,18.10
2017-06-29T18:01:22.718Z,18.00
2017-06-29T18:03:50.261Z,18.10
2017-06-29T18:06:17.885Z,18.00
2017-06-29T18:08:45.450Z,17.90
2017-06-29T18:11:13.010Z,18.10
2017-06-29T18:13:40.546Z,17.90
2017-06-29T18:16:08.126Z,17.90
2017-06-29T18:18:35.681Z,17.90
2017-06-29T18:21:03.238Z,17.80
2017-06-29T18:23:30.793Z,17.80
2017-06-29T18:25:58.348Z,17.80
2017-06-29T18:28:25.875Z,17.90
2017-06-29T18:30:53.414Z,17.80
2017-06-29T18:33:20.949Z,17.90
2017-06-29T18:35:48.495Z,17.90
2017-06-29T18:38:16.040Z,18.00
2017-06-29T18:40:43.574Z,18.00
2017-06-29T18:43:11.109Z,18.00
2017-06-29T18:45:38.642Z,18.00
2017-06-29T18:48:06.182Z,17.80
2017-06-29T18:50:33.702Z,18.00
2017-06-29T18:53:01.252Z,18.00
2017-06-29T18:55:28.786Z,18.00
2017-06-29T18:57:56.339Z,18.00
2017-06-29T19:12:55.208Z,17.90
2017-06-29T19:15:22.733Z,17.90
2017-06-29T19:17:50.291Z,17.80
2017-06-29T19:20:17.937Z,17.80
2017-06-29T19:30:12.155Z,17.70
2017-06-29T19:32:40.835Z,17.80
2017-06-29T19:35:08.387Z,17.80
2017-06-29T19:37:35.970Z,17.90
2017-06-29T19:40:03.577Z,17.90
2017-06-29T19:42:31.937Z,17.80
2017-06-29T19:44:59.524Z,17.70
2017-06-29T19:47:27.962Z,17.80
2017-06-29T19:49:55.514Z,17.90
2017-06-29T19:52:23.065Z,17.80
2017-06-29T19:54:50.636Z,17.60
2017-06-29T19:59:47.061Z,17.30
2017-06-29T20:02:15.731Z,17.40
2017-06-29T20:04:44.410Z,17.50
2017-06-29T20:09:43.642Z,17.30
2017-06-29T20:12:12.304Z,17.10
2017-06-29T20:14:40.988Z,17.40
2017-06-29T20:17:09.692Z,18.50
2017-06-29T20:22:07.256Z,17.40
2017-06-29T20:24:36.089Z,17.50
2017-06-29T20:29:33.642Z,17.30
2017-06-29T20:32:02.340Z,17.30
2017-06-29T20:34:31.067Z,15.90
2017-06-29T20:36:59.751Z,17.30
2017-06-29T20:39:28.495Z,17.30
2017-06-29T20:41:57.202Z,17.20
2017-06-29T20:44:25.912Z,17.20
2017-06-29T20:46:53.458Z,17.20
2017-06-29T20:49:22.118Z,17.20
2017-06-29T20:54:21.829Z,17.20
2017-06-29T20:59:19.415Z,17.10
2017-06-29T21:01:46.967Z,17.10
2017-06-29T21:04:15.650Z,17.30
2017-06-29T21:06:43.172Z,17.30
2017-06-29T21:09:10.722Z,17.20
2017-06-29T21:11:38.258Z,17.30
2017-06-29T21:14:05.809Z,17.40
2017-06-29T21:16:34.495Z,17.40
2017-06-29T21:19:02.052Z,17.30
2017-06-29T21:21:30.778Z,17.40
2017-06-29T21:23:58.345Z,17.40
2017-06-29T21:26:27.015Z,17.40
2017-06-29T21:28:54.574Z,17.40
2017-06-29T21:31:22.101Z,17.30
2017-06-29T21:33:50.795Z,17.30
2017-06-29T21:36:18.338Z,17.30
2017-06-29T21:38:47.029Z,17.40
2017-06-29T21:41:15.699Z,17.50
2017-06-29T21:43:43.243Z,17.50
2017-06-29T21:46:10.786Z,17.20
2017-06-29T21:48:39.503Z,17.30
2017-06-29T21:51:07.046Z,17.30
2017-06-29T21:53:35.738Z,17.20
2017-06-29T21:56:04.426Z,17.40
2017-06-29T21:58:31.955Z,17.40
2017-06-29T22:00:59.498Z,17.30
2017-06-29T22:03:27.061Z,17.30
2017-06-29T22:05:54.610Z,17.30
2017-06-29T22:08:22.129Z,17.40
2017-06-29T22:10:49.682Z,17.30
2017-06-29T22:13:17.218Z,17.20
2017-06-29T22:18:13.688Z,17.20
2017-06-29T22:20:41.230Z,17.10
2017-06-29T22:23:08.759Z,17.20
2017-06-29T22:25:36.313Z,17.30
2017-06-29T22:28:03.850Z,17.40
2017-06-29T22:30:31.380Z,17.20
2017-06-29T22:32:58.934Z,17.30
2017-06-29T22:35:26.486Z,17.20
2017-06-29T22:37:55.169Z,17.20
2017-06-29T22:40:22.704Z,17.20
2017-06-29T22:42:51.381Z,17.30
2017-06-29T22:45:18.914Z,17.30
2017-06-29T22:47:47.976Z,17.20
2017-06-29T22:50:17.026Z,17.30
2017-06-29T22:52:44.571Z,17.30
2017-06-29T22:55:13.753Z,17.10
2017-06-29T22:57:41.295Z,17.10
2017-06-29T23:02:38.582Z,17.20
2017-06-29T23:05:06.110Z,17.20
2017-06-29T23:07:33.652Z,17.20
2017-06-29T23:10:01.178Z,17.30
2017-06-29T23:12:28.688Z,17.30
2017-06-29T23:14:56.235Z,17.40
2017-06-29T23:19:53.805Z,17.30
2017-06-29T23:22:22.470Z,17.40
2017-06-29T23:24:51.518Z,17.40
2017-06-29T23:27:19.054Z,17.40
2017-06-29T23:29:46.607Z,17.50
2017-06-29T23:32:14.130Z,17.30
2017-06-29T23:34:41.673Z,17.30
2017-06-29T23:37:10.345Z,18.20
2017-06-29T23:39:37.906Z,17.40
2017-06-29T23:42:05.447Z,17.30
2017-06-29T23:44:34.135Z,17.70
2017-06-29T23:47:02.798Z,17.50
2017-06-29T23:49:30.313Z,17.50
2017-06-29T23:51:59.458Z,17.30
2017-06-29T23:54:26.986Z,17.30
2017-06-29T23:56:55.661Z,17.30
2017-06-29T23:59:24.715Z,16.30
